Time;durP1;ratioP1;P1;durP2;ratioP2;P2;SDS_P1;SDS_P2;PMS_P1;PMS_P2;Temp;Humidity;BMP_temperature;BMP_pressure;BME280_temperature;BME280_humidity;BME280_pressure;Samples;Min_cycle;Max_cycle;Signal;HPM_P1;HPM_P2
2022/06/03 00:02:02;;;;;;;4.90;3.50;;;11.90;99.90;;;;;;5033416;28;20489;-72
2022/06/03 00:04:52;;;;;;;5.10;4.40;;;11.90;99.90;;;;;;5033413;28;20414;-72
2022/06/03 00:07:41;;;;;;;4.10;3.70;;;11.90;99.90;;;;;;5033978;28;20507;-72
2022/06/03 00:10:22;;;;;;;5.60;3.70;;;11.90;99.90;;;;;;5032977;28;20399;-72
2022/06/03 00:13:31;;;;;;;6.77;4.30;;;11.90;99.90;;;;;;5031777;28;20446;-72
2022/06/03 00:16:26;;;;;;;4.83;3.57;;;11.90;99.90;;;;;;5032859;28;20462;-71
2022/06/03 00:18:54;;;;;;;9.43;4.60;;;12.00;99.90;;;;;;5033270;28;20493;-72
2022/06/03 00:21:55;;;;;;;5.53;4.23;;;12.00;99.90;;;;;;5033072;28;20394;-72
2022/06/03 00:25:16;;;;;;;5.17;3.97;;;11.90;99.90;;;;;;5032986;28;20767;-73
2022/06/03 00:27:50;;;;;;;6.50;4.27;;;11.90;99.90;;;;;;4997575;28;20462;-72
2022/06/03 00:30:45;;;;;;;3.87;3.50;;;11.90;99.90;;;;;;5032742;28;20421;-71
2022/06/03 00:33:29;;;;;;;8.13;4.40;;;11.80;99.90;;;;;;5032967;28;20397;-71
2022/06/03 00:36:03;;;;;;;6.50;3.77;;;11.80;99.90;;;;;;5032546;28;20422;-71
2022/06/03 00:38:42;;;;;;;5.00;3.90;;;11.70;99.90;;;;;;5032668;28;20413;-72
2022/06/03 00:41:13;;;;;;;5.93;4.77;;;11.70;99.90;;;;;;5032482;28;20398;-72
2022/06/03 00:44:10;;;;;;;4.83;4.30;;;11.70;99.90;;;;;;5032722;28;20407;-72
2022/06/03 00:47:12;;;;;;;6.80;4.80;;;11.70;99.90;;;;;;5032207;28;20971;-72
2022/06/03 00:49:41;;;;;;;3.87;3.50;;;11.60;99.90;;;;;;5032658;28;20406;-72
2022/06/03 00:52:15;;;;;;;8.53;4.17;;;11.60;99.90;;;;;;5032410;28;20497;-71
2022/06/03 00:54:59;;;;;;;9.33;4.73;;;11.60;99.90;;;;;;5032071;28;20429;-74
2022/06/03 00:57:51;;;;;;;5.50;3.60;;;11.50;99.90;;;;;;5032323;28;20793;-71
2022/06/03 01:00:26;;;;;;;4.23;3.60;;;11.50;99.90;;;;;;5032419;28;20402;-71
2022/06/03 01:03:24;;;;;;;4.80;3.53;;;11.40;99.90;;;;;;5032327;28;20834;-71
2022/06/03 01:06:04;;;;;;;7.50;5.63;;;11.40;99.90;;;;;;5032038;28;20430;-71
2022/06/03 01:08:43;;;;;;;8.13;4.43;;;11.50;99.90;;;;;;5032114;28;20452;-71
2022/06/03 01:11:27;;;;;;;5.93;4.53;;;11.50;99.90;;;;;;5032241;28;20778;-71
2022/06/03 01:14:05;;;;;;;7.57;4.80;;;11.50;99.90;;;;;;5032110;28;20452;-72
2022/06/03 01:17:02;;;;;;;6.70;4.50;;;11.50;99.90;;;;;;5031967;28;20413;-71
2022/06/03 01:19:39;;;;;;;5.57;5.00;;;11.50;99.90;;;;;;5032304;28;20995;-71
2022/06/03 01:22:29;;;;;;;4.20;3.90;;;11.50;99.90;;;;;;5031807;28;20401;-71
2022/06/03 01:25:34;;;;;;;5.37;4.37;;;11.40;99.90;;;;;;5032162;28;20959;-71
2022/06/03 01:28:40;;;;;;;4.80;4.30;;;11.40;99.90;;;;;;5032549;28;20457;-71
2022/06/03 01:31:24;;;;;;;6.83;4.70;;;11.30;99.90;;;;;;4961097;28;20426;-71
2022/06/03 01:33:50;;;;;;;4.33;3.73;;;11.30;99.90;;;;;;5031892;28;20394;-71
2022/06/03 01:36:36;;;;;;;4.27;3.83;;;11.20;99.90;;;;;;5030234;28;20430;-71
2022/06/03 01:39:07;;;;;;;6.87;3.27;;;11.20;99.90;;;;;;5031859;28;20217;-71
2022/06/03 01:41:41;;;;;;;5.80;4.70;;;11.20;99.90;;;;;;5031653;28;20394;-71
2022/06/03 01:44:35;;;;;;;6.93;4.23;;;11.10;99.90;;;;;;5031656;28;20764;-70
2022/06/03 01:47:06;;;;;;;5.70;4.60;;;11.20;99.90;;;;;;5024096;28;20981;-72
2022/06/03 01:50:10;;;;;;;6.30;5.53;;;11.10;99.90;;;;;;5029723;28;21051;-71
2022/06/03 01:53:01;;;;;;;7.80;4.87;;;11.10;99.90;;;;;;4950999;29;20524;-71
2022/06/03 01:55:35;;;;;;;6.17;4.13;;;11.00;99.90;;;;;;5001048;23;20486;-67
2022/06/03 01:58:22;;;;;;;9.50;4.87;;;11.00;99.90;;;;;;5010894;28;20422;-67
2022/06/03 02:00:54;;;;;;;4.37;4.00;;;11.00;99.90;;;;;;5010875;28;20498;-68
2022/06/03 02:03:42;;;;;;;6.50;4.60;;;11.00;99.90;;;;;;5010835;28;20489;-67
2022/06/03 02:06:22;;;;;;;8.60;4.73;;;11.00;99.90;;;;;;5011072;28;20463;-67
2022/06/03 02:09:09;;;;;;;6.20;4.30;;;10.90;99.90;;;;;;5010886;28;20781;-67
2022/06/03 02:11:49;;;;;;;5.57;4.10;;;10.90;99.90;;;;;;5010784;28;20474;-67
2022/06/03 02:14:30;;;;;;;3.77;3.17;;;10.90;99.90;;;;;;5011266;28;20765;-67
2022/06/03 02:16:59;;;;;;;4.53;3.90;;;10.80;99.90;;;;;;5010944;28;20469;-67
2022/06/03 02:19:45;;;;;;;6.83;5.40;;;10.80;99.90;;;;;;5010818;28;20454;-67
2022/06/03 02:22:32;;;;;;;6.67;5.00;;;10.80;99.90;;;;;;5010769;28;20418;-67
2022/06/03 02:25:30;;;;;;;5.63;4.40;;;10.70;99.90;;;;;;5010852;28;20421;-67
2022/06/03 02:28:08;;;;;;;7.37;5.90;;;10.70;99.90;;;;;;4998441;28;20509;-67
2022/06/03 02:30:48;;;;;;;5.40;4.60;;;10.70;99.90;;;;;;5010910;28;20403;-67
2022/06/03 02:33:45;;;;;;;5.30;4.13;;;10.70;99.90;;;;;;5010511;28;20407;-68
2022/06/03 02:36:38;;;;;;;7.17;4.07;;;10.70;99.90;;;;;;5014393;28;20909;-67
2022/06/03 02:39:28;;;;;;;5.67;4.53;;;10.60;99.90;;;;;;5014417;28;20426;-68
2022/06/03 02:42:12;;;;;;;6.50;5.13;;;10.70;99.90;;;;;;5014174;28;20391;-66
2022/06/03 02:45:04;;;;;;;5.47;4.23;;;10.70;99.90;;;;;;5014180;28;20410;-67
2022/06/03 02:47:54;;;;;;;9.77;4.87;;;10.70;99.90;;;;;;5014175;28;20446;-68
2022/06/03 02:50:48;;;;;;;5.77;4.13;;;10.70;99.90;;;;;;5014343;28;20933;-67
2022/06/03 02:53:51;;;;;;;5.80;4.20;;;10.60;99.90;;;;;;5014200;28;20399;-67
2022/06/03 02:56:20;;;;;;;7.10;4.97;;;10.70;99.90;;;;;;5014202;28;20435;-67
2022/06/03 02:59:02;;;;;;;5.47;4.10;;;10.60;99.90;;;;;;5014807;28;20772;-67
2022/06/03 03:01:47;;;;;;;7.50;5.50;;;10.60;99.90;;;;;;5014672;28;20846;-67
2022/06/03 03:04:42;;;;;;;6.07;4.67;;;10.70;99.90;;;;;;5014457;28;20388;-67
2022/06/03 03:07:45;;;;;;;5.30;4.80;;;10.70;99.90;;;;;;5014485;28;21088;-67
2022/06/03 03:10:33;;;;;;;8.00;5.17;;;10.70;99.90;;;;;;5012970;28;20415;-66
2022/06/03 03:13:22;;;;;;;7.60;5.10;;;10.80;99.90;;;;;;5013847;28;20441;-66
2022/06/03 03:15:53;;;;;;;7.03;4.97;;;10.80;99.90;;;;;;5013746;28;20419;-67
2022/06/03 03:18:28;;;;;;;4.50;3.70;;;10.70;99.90;;;;;;5014219;28;20407;-67
2022/06/03 03:21:17;;;;;;;6.83;4.53;;;10.80;99.90;;;;;;5015111;28;20525;-68
2022/06/03 03:23:45;;;;;;;5.70;5.03;;;10.70;99.90;;;;;;5003594;28;20984;-67
2022/06/03 03:26:21;;;;;;;6.20;4.10;;;10.80;99.90;;;;;;5013522;28;20486;-67
2022/06/03 03:29:05;;;;;;;5.90;5.13;;;10.90;99.90;;;;;;5013828;28;20387;-67
2022/06/03 03:31:59;;;;;;;5.40;4.90;;;10.80;99.90;;;;;;5013950;28;20392;-67
2022/06/03 03:34:51;;;;;;;8.60;5.10;;;10.90;99.90;;;;;;5013470;28;20870;-67
2022/06/03 03:37:41;;;;;;;5.27;4.70;;;10.90;99.90;;;;;;5013413;28;20395;-67
2022/06/03 03:40:41;;;;;;;5.00;4.60;;;10.90;99.90;;;;;;5013485;28;20414;-67
2022/06/03 03:43:28;;;;;;;6.80;5.27;;;10.90;99.90;;;;;;5014086;28;20391;-69
2022/06/03 03:46:21;;;;;;;7.20;4.40;;;10.90;99.90;;;;;;5012427;28;20477;-67
2022/06/03 03:49:17;;;;;;;8.57;4.80;;;11.00;99.90;;;;;;5013392;28;20741;-67
2022/06/03 03:52:20;;;;;;;5.20;4.17;;;11.10;99.90;;;;;;5013521;28;20708;-67
2022/06/03 03:55:10;;;;;;;7.10;5.40;;;11.20;99.90;;;;;;5013153;28;20537;-67
2022/06/03 03:57:47;;;;;;;7.30;5.20;;;11.30;99.90;;;;;;5013245;28;20961;-67
2022/06/03 04:00:43;;;;;;;8.60;5.73;;;11.40;99.90;;;;;;5013563;28;20433;-67
2022/06/03 04:03:46;;;;;;;5.00;4.47;;;11.40;99.90;;;;;;5013544;28;20390;-68
2022/06/03 04:06:51;;;;;;;5.47;4.97;;;11.50;99.90;;;;;;5012900;28;20419;-67
2022/06/03 04:09:31;;;;;;;5.43;4.70;;;11.60;99.90;;;;;;5013233;28;20387;-67
2022/06/03 04:12:22;;;;;;;7.57;5.37;;;11.80;99.90;;;;;;5013448;28;20379;-68
2022/06/03 04:15:06;;;;;;;8.80;6.30;;;11.90;99.90;;;;;;5013399;28;20419;-68
2022/06/03 04:18:09;;;;;;;7.27;5.70;;;12.10;99.90;;;;;;5013089;28;20778;-67
2022/06/03 04:20:59;;;;;;;5.93;4.30;;;13.20;99.90;;;;;;5013083;28;20494;-67
2022/06/03 04:23:59;;;;;;;7.90;4.80;;;14.80;99.90;;;;;;5013055;28;20897;-67
2022/06/03 04:26:37;;;;;;;6.03;4.60;;;15.90;99.90;;;;;;5013154;28;20424;-67
2022/06/03 04:29:34;;;;;;;4.83;4.20;;;16.80;99.90;;;;;;5013067;28;21046;-67
2022/06/03 04:32:27;;;;;;;5.80;4.40;;;17.20;99.90;;;;;;5013281;28;20388;-67
2022/06/03 04:35:32;;;;;;;4.80;4.30;;;17.20;99.90;;;;;;5012948;28;20457;-67
2022/06/03 04:38:31;;;;;;;6.47;4.77;;;17.40;99.90;;;;;;5013237;28;20417;-67
2022/06/03 04:41:34;;;;;;;5.23;4.73;;;18.20;99.90;;;;;;5013266;28;20407;-68
2022/06/03 04:44:02;;;;;;;5.93;5.10;;;17.70;99.90;;;;;;5013168;28;20421;-67
2022/06/03 04:46:40;;;;;;;6.23;5.10;;;17.60;99.90;;;;;;5012769;28;20463;-67
2022/06/03 04:49:29;;;;;;;7.93;5.77;;;17.20;99.90;;;;;;5012683;28;20385;-67
2022/06/03 04:52:03;;;;;;;6.03;5.10;;;16.80;99.90;;;;;;5012377;28;20795;-67
2022/06/03 04:54:59;;;;;;;5.27;4.60;;;16.60;99.90;;;;;;5012392;28;20402;-67
2022/06/03 04:57:52;;;;;;;5.77;4.50;;;17.20;99.90;;;;;;5012327;28;20417;-67
2022/06/03 05:00:40;;;;;;;4.47;4.00;;;17.30;99.90;;;;;;5010998;28;20417;-67
2022/06/03 05:03:43;;;;;;;4.23;3.83;;;17.70;99.90;;;;;;5012318;28;20404;-67
2022/06/03 05:06:30;;;;;;;3.40;3.10;;;18.10;99.90;;;;;;5011936;28;20772;-66
2022/06/03 05:09:14;;;;;;;5.80;3.77;;;19.20;99.90;;;;;;5011035;28;20489;-67
2022/06/03 05:12:23;;;;;;;4.57;3.90;;;19.90;99.90;;;;;;5012043;28;20497;-68
2022/06/03 05:15:13;;;;;;;3.80;2.70;;;19.20;99.90;;;;;;5011778;28;20491;-65
2022/06/03 05:18:00;;;;;;;3.30;2.90;;;19.30;99.90;;;;;;5012766;28;20391;-67
2022/06/03 05:20:35;;;;;;;4.00;2.93;;;19.70;99.90;;;;;;5012647;28;20846;-68
2022/06/03 05:23:10;;;;;;;3.10;2.73;;;20.50;99.90;;;;;;5011818;28;20402;-67
2022/06/03 05:25:44;;;;;;;3.03;2.83;;;20.00;99.90;;;;;;5011905;28;20514;-67
2022/06/03 05:28:30;;;;;;;3.57;3.17;;;20.10;99.90;;;;;;5011786;28;20446;-66
2022/06/03 05:31:27;;;;;;;2.67;2.40;;;20.10;99.90;;;;;;5011910;28;20442;-67
2022/06/03 05:34:16;;;;;;;2.97;2.63;;;20.10;99.90;;;;;;5008596;28;20418;-67
2022/06/03 05:36:56;;;;;;;2.87;2.53;;;20.80;99.90;;;;;;5011568;28;20419;-65
2022/06/03 05:40:02;;;;;;;2.40;2.20;;;20.60;99.90;;;;;;5011632;28;20410;-65
2022/06/03 05:42:55;;;;;;;2.80;2.07;;;20.60;99.90;;;;;;5011707;28;20760;-66
2022/06/03 05:45:43;;;;;;;2.67;2.13;;;21.30;99.90;;;;;;5011073;28;20421;-65
2022/06/03 05:48:37;;;;;;;1.97;1.77;;;21.00;99.90;;;;;;5011249;28;20583;-66
2022/06/03 05:51:28;;;;;;;2.60;1.93;;;21.20;99.90;;;;;;5011312;28;20928;-67
2022/06/03 05:53:56;;;;;;;1.77;1.67;;;21.50;98.50;;;;;;5011485;28;20478;-67
2022/06/03 05:56:35;;;;;;;2.17;1.97;;;21.10;98.80;;;;;;5010739;28;20444;-67
2022/06/03 05:59:09;;;;;;;2.43;2.23;;;20.80;99.70;;;;;;5011518;28;20771;-67
2022/06/03 06:02:08;;;;;;;6.40;2.43;;;21.50;98.40;;;;;;5011193;28;20398;-67
2022/06/03 06:04:52;;;;;;;2.57;2.30;;;21.80;98.10;;;;;;5010847;28;20410;-68
2022/06/03 06:07:26;;;;;;;2.50;1.97;;;21.60;97.70;;;;;;5011230;28;20818;-67
2022/06/03 06:10:13;;;;;;;1.63;1.53;;;22.00;97.10;;;;;;5013847;28;20912;-66
2022/06/03 06:13:07;;;;;;;1.67;1.57;;;21.90;96.80;;;;;;5015119;28;20395;-66
2022/06/03 06:15:46;;;;;;;7.77;2.10;;;22.20;95.40;;;;;;5003835;28;20446;-67
2022/06/03 06:18:33;;;;;;;1.43;1.33;;;22.40;95.60;;;;;;5015202;28;20684;-67
2022/06/03 06:21:32;;;;;;;2.50;2.00;;;23.30;95.10;;;;;;5015027;28;20411;-68
2022/06/03 06:24:34;;;;;;;2.13;1.93;;;23.60;92.80;;;;;;5015016;28;20775;-65
2022/06/03 06:27:37;;;;;;;1.23;1.13;;;22.30;94.20;;;;;;5014981;28;20532;-65
2022/06/03 06:30:28;;;;;;;1.57;1.30;;;23.20;93.60;;;;;;5014916;28;20967;-68
2022/06/03 06:33:19;;;;;;;1.63;1.43;;;23.70;92.20;;;;;;5015063;28;20893;-67
2022/06/03 06:36:19;;;;;;;2.00;1.53;;;24.40;91.80;;;;;;5014682;28;20514;-65
2022/06/03 06:39:14;;;;;;;1.30;1.20;;;24.50;87.70;;;;;;5015088;28;20483;-66
2022/06/03 06:42:04;;;;;;;1.50;1.20;;;24.20;88.70;;;;;;5014763;28;20767;-66
2022/06/03 06:44:54;;;;;;;1.40;1.30;;;23.30;90.30;;;;;;5014266;28;20969;-65
2022/06/03 06:47:28;;;;;;;1.90;1.27;;;23.30;90.90;;;;;;5014764;28;20442;-66
2022/06/03 06:50:16;;;;;;;1.27;1.17;;;23.10;91.00;;;;;;5014842;28;20411;-66
2022/06/03 06:52:50;;;;;;;2.10;1.37;;;24.20;89.30;;;;;;5014430;28;20446;-66
2022/06/03 06:55:27;;;;;;;2.30;1.40;;;22.60;90.20;;;;;;5014292;28;20941;-67
2022/06/03 06:58:00;;;;;;;1.13;1.03;;;23.70;88.60;;;;;;5015107;28;20402;-66
2022/06/03 07:00:36;;;;;;;2.20;1.23;;;24.00;89.20;;;;;;5014444;28;20449;-66
2022/06/03 07:03:24;;;;;;;1.50;1.40;;;25.30;83.40;;;;;;5014142;28;20418;-66
2022/06/03 07:06:06;;;;;;;1.27;1.17;;;23.50;85.90;;;;;;5014115;28;20430;-66
2022/06/03 07:08:42;;;;;;;1.50;1.40;;;24.20;87.10;;;;;;5014544;28;20446;-66
2022/06/03 07:11:26;;;;;;;3.23;1.20;;;25.40;84.50;;;;;;5014140;28;20414;-65
2022/06/03 07:13:59;;;;;;;1.33;1.23;;;26.10;82.20;;;;;;5014562;28;20407;-66
2022/06/03 07:19:48;;;;;;;2.10;1.10;;;25.20;81.50;;;;;;5014559;28;20403;-66
2022/06/03 07:22:33;;;;;;;2.07;1.40;;;24.20;83.70;;;;;;5014278;28;20407;-66
2022/06/03 07:25:15;;;;;;;1.40;1.30;;;25.40;81.10;;;;;;5013912;28;20426;-66
2022/06/03 07:27:43;;;;;;;1.27;1.17;;;25.90;78.10;;;;;;5014264;28;20520;-66
2022/06/03 07:30:12;;;;;;;1.03;0.93;;;25.40;77.10;;;;;;5014237;28;20490;-66
2022/06/03 07:32:49;;;;;;;1.10;1.00;;;24.20;82.30;;;;;;5013634;28;20399;-67
2022/06/03 07:35:22;;;;;;;1.40;1.20;;;24.00;81.90;;;;;;5013854;28;20434;-67
2022/06/03 07:37:57;;;;;;;1.97;1.07;;;23.80;85.30;;;;;;5013874;28;20411;-66
2022/06/03 07:40:45;;;;;;;1.23;1.10;;;24.10;83.70;;;;;;5013533;28;20404;-67
2022/06/03 07:43:21;;;;;;;1.47;1.37;;;25.30;82.80;;;;;;5013567;28;20449;-66
2022/06/03 07:45:55;;;;;;;1.20;1.10;;;25.90;80.40;;;;;;5013308;28;20457;-66
2022/06/03 07:48:24;;;;;;;1.43;1.27;;;26.70;74.70;;;;;;5013587;28;20447;-66
2022/06/03 07:51:10;;;;;;;1.40;1.30;;;27.20;69.70;;;;;;5012264;28;20941;-66
2022/06/03 07:53:35;;;;;;;1.10;1.00;;;26.40;72.90;;;;;;5013384;28;20410;-66
2022/06/03 07:56:01;;;;;;;0.80;0.77;;;26.30;72.80;;;;;;5013596;28;20801;-67
2022/06/03 07:58:30;;;;;;;1.10;0.90;;;25.70;73.90;;;;;;5013375;28;20171;-67
2022/06/03 08:00:56;;;;;;;1.10;1.00;;;24.30;71.50;;;;;;5013408;28;20415;-67
2022/06/03 08:03:32;;;;;;;1.03;1.00;;;24.70;76.80;;;;;;5013557;28;20407;-67
2022/06/03 08:06:00;;;;;;;1.10;0.87;;;24.20;74.50;;;;;;5013138;28;20279;-66
2022/06/03 08:11:16;;;;;;;1.10;1.00;;;25.70;71.40;;;;;;5014296;28;20390;-67
2022/06/03 08:13:41;;;;;;;1.10;0.97;;;26.90;68.50;;;;;;5014030;28;20399;-69
2022/06/03 08:16:29;;;;;;;1.10;1.00;;;26.50;67.70;;;;;;5014074;28;20978;-66
2022/06/03 08:18:58;;;;;;;0.90;0.90;;;26.00;69.40;;;;;;5014446;28;20148;-67
2022/06/03 08:21:41;;;;;;;1.20;1.10;;;25.90;70.20;;;;;;5014173;28;20771;-68
2022/06/03 08:24:14;;;;;;;1.33;1.10;;;25.80;69.60;;;;;;5013955;28;20379;-67
2022/06/03 08:26:42;;;;;;;1.10;1.10;;;26.00;69.50;;;;;;5013026;28;20430;-67
2022/06/03 08:29:14;;;;;;;1.17;1.07;;;24.40;71.30;;;;;;5013158;28;20419;-67
2022/06/03 08:31:39;;;;;;;1.20;1.10;;;24.20;74.30;;;;;;5012206;28;20788;-66
2022/06/03 08:34:12;;;;;;;1.33;1.23;;;25.30;72.40;;;;;;5012966;28;20407;-67
2022/06/03 08:36:40;;;;;;;1.20;1.10;;;26.50;67.30;;;;;;5012722;28;20183;-67
2022/06/03 08:39:28;;;;;;;1.37;1.23;;;27.00;64.80;;;;;;5012890;28;20490;-67
2022/06/03 08:42:16;;;;;;;1.37;1.20;;;26.20;65.50;;;;;;5012287;28;20473;-67
2022/06/03 08:45:00;;;;;;;1.77;1.37;;;25.50;69.90;;;;;;5012494;28;20807;-67
2022/06/03 08:47:44;;;;;;;1.87;1.40;;;25.40;64.70;;;;;;5012455;28;20953;-66
2022/06/03 08:50:27;;;;;;;1.30;1.20;;;25.40;70.40;;;;;;5013008;28;20491;-68
2022/06/03 08:53:11;;;;;;;1.07;0.97;;;25.90;64.30;;;;;;5012964;28;20475;-67
2022/06/03 08:55:49;;;;;;;1.20;1.10;;;25.10;69.50;;;;;;5012397;28;20458;-67
2022/06/03 08:58:24;;;;;;;1.10;1.00;;;25.10;68.30;;;;;;5012562;28;20465;-67
2022/06/03 09:01:06;;;;;;;1.30;1.20;;;25.60;66.90;;;;;;5013210;28;20804;-67
2022/06/03 09:03:45;;;;;;;1.40;1.20;;;26.50;63.20;;;;;;5012720;28;20399;-67
2022/06/03 09:06:24;;;;;;;1.30;1.20;;;26.00;65.00;;;;;;5012081;28;20850;-67
2022/06/03 09:08:55;;;;;;;1.50;1.40;;;26.70;66.50;;;;;;5012179;28;20969;-67
2022/06/03 09:11:37;;;;;;;1.20;1.10;;;25.40;68.60;;;;;;5011985;28;20748;-67
2022/06/03 09:14:12;;;;;;;1.73;1.30;;;24.90;67.10;;;;;;5012205;28;20878;-67
2022/06/03 09:16:40;;;;;;;1.30;1.20;;;26.70;63.10;;;;;;5011983;28;20411;-67
2022/06/03 09:19:12;;;;;;;1.40;1.17;;;27.90;59.40;;;;;;5012154;28;20486;-67
2022/06/03 09:21:41;;;;;;;1.40;1.30;;;27.00;59.10;;;;;;5012165;28;20486;-68
2022/06/03 09:24:10;;;;;;;1.37;1.13;;;26.80;58.60;;;;;;5011947;28;20411;-67
2022/06/03 09:26:42;;;;;;;1.27;1.17;;;26.70;58.90;;;;;;5010196;28;20866;-68
2022/06/03 09:29:11;;;;;;;1.37;1.10;;;25.20;62.80;;;;;;5011837;28;20388;-68
2022/06/03 09:31:38;;;;;;;1.20;1.10;;;26.00;58.40;;;;;;5011920;28;20403;-68
2022/06/03 09:34:07;;;;;;;0.90;0.90;;;25.50;59.80;;;;;;5011745;28;20423;-67
2022/06/03 09:36:33;;;;;;;1.70;1.50;;;25.30;61.40;;;;;;5011647;28;20420;-67
2022/06/03 09:39:00;;;;;;;1.63;1.40;;;25.50;59.50;;;;;;5012097;28;20490;-68
2022/06/03 09:41:30;;;;;;;1.67;1.20;;;25.30;60.40;;;;;;5011946;28;20764;-68
2022/06/03 09:43:57;;;;;;;1.00;0.90;;;25.40;60.10;;;;;;5011111;28;20462;-68
2022/06/03 09:46:30;;;;;;;1.53;1.10;;;25.90;59.40;;;;;;5011943;28;20422;-68
2022/06/03 09:48:57;;;;;;;1.57;1.20;;;26.70;57.80;;;;;;5011938;28;20475;-68
2022/06/03 09:52:12;;;;;;;1.30;1.20;;;26.70;58.60;;;;;;5011764;28;20387;-68
2022/06/03 09:54:19;;;;;;;1.43;1.30;;;26.40;58.80;;;;;;5007460;28;20426;-68
2022/06/03 09:56:50;;;;;;;1.90;1.40;;;26.80;58.30;;;;;;5011184;28;20928;-68
2022/06/03 09:59:17;;;;;;;1.40;1.30;;;26.30;58.40;;;;;;5011789;28;20392;-68
2022/06/03 10:01:42;;;;;;;1.10;1.00;;;26.10;58.70;;;;;;5011424;28;20414;-68
2022/06/03 10:04:08;;;;;;;1.43;1.23;;;26.40;58.10;;;;;;5011411;28;20407;-68
2022/06/03 10:06:43;;;;;;;1.30;1.20;;;25.70;58.10;;;;;;5011684;28;20250;-68
2022/06/03 10:14:41;;;;;;;1.30;1.20;;;24.30;58.80;;;;;;5012128;28;20915;-67
2022/06/03 10:17:09;;;;;;;1.33;1.23;;;24.10;65.40;;;;;;5011505;28;20553;-67
2022/06/03 10:19:35;;;;;;;2.07;1.77;;;24.60;60.60;;;;;;5011591;28;20183;-67
2022/06/03 10:22:08;;;;;;;1.70;1.53;;;24.40;61.50;;;;;;5011272;28;20418;-66
2022/06/03 10:24:34;;;;;;;1.40;1.30;;;24.70;61.30;;;;;;5011570;28;20249;-66
2022/06/03 10:27:01;;;;;;;1.60;1.50;;;23.90;60.00;;;;;;5011610;28;20948;-67
2022/06/03 10:29:29;;;;;;;1.53;1.30;;;23.70;61.50;;;;;;5011370;28;20496;-67
2022/06/03 10:32:08;;;;;;;2.10;1.70;;;23.80;62.80;;;;;;5011741;28;20417;-67
2022/06/03 10:34:39;;;;;;;1.80;1.70;;;24.40;62.60;;;;;;5011548;28;20426;-69
2022/06/03 10:37:10;;;;;;;1.30;1.20;;;24.00;63.30;;;;;;5011711;28;20442;-67
2022/06/03 10:39:36;;;;;;;1.67;1.50;;;23.30;64.40;;;;;;5011452;28;20451;-67
2022/06/03 10:42:02;;;;;;;1.40;1.30;;;23.50;66.40;;;;;;5011409;28;20405;-68
2022/06/03 10:44:38;;;;;;;1.93;1.70;;;23.60;65.00;;;;;;5011129;28;20496;-67
2022/06/03 10:47:16;;;;;;;1.63;1.53;;;23.70;66.50;;;;;;5011490;28;20463;-67
2022/06/03 10:49:56;;;;;;;2.87;2.00;;;23.50;66.00;;;;;;5011467;28;20384;-67
2022/06/03 11:01:32;;;;;;;1.40;1.30;;;23.50;64.20;;;;;;5015186;28;20468;-67
2022/06/03 11:03:58;;;;;;;1.87;1.60;;;23.80;64.80;;;;;;5014830;28;20869;-67
2022/06/03 11:06:28;;;;;;;1.50;1.30;;;23.80;62.90;;;;;;5014699;28;20526;-67
2022/06/03 11:08:58;;;;;;;1.37;1.27;;;23.10;63.90;;;;;;5014638;28;20972;-70
2022/06/03 11:11:34;;;;;;;1.80;1.70;;;23.20;66.00;;;;;;5014856;28;20411;-68
2022/06/03 11:14:22;;;;;;;2.17;2.07;;;23.10;65.10;;;;;;5014755;28;20769;-67
2022/06/03 11:16:58;;;;;;;1.90;1.70;;;23.20;67.10;;;;;;5014715;28;20419;-68
2022/06/03 11:19:23;;;;;;;2.33;1.73;;;23.40;66.50;;;;;;5014333;28;20405;-68
2022/06/03 11:22:11;;;;;;;1.43;1.33;;;23.60;65.30;;;;;;5013912;28;20954;-65
2022/06/03 11:24:38;;;;;;;1.47;1.37;;;23.40;66.40;;;;;;5013973;28;20498;-68
2022/06/03 11:27:08;;;;;;;1.70;1.60;;;23.40;65.70;;;;;;5014265;28;20411;-67
2022/06/03 11:29:37;;;;;;;2.13;1.50;;;23.70;64.50;;;;;;5014123;28;20490;-67
2022/06/03 11:32:06;;;;;;;1.70;1.60;;;23.70;64.20;;;;;;5013926;28;20412;-67
2022/06/03 11:34:43;;;;;;;1.20;1.10;;;23.70;64.70;;;;;;5014019;28;20472;-67
2022/06/03 11:37:21;;;;;;;1.30;1.20;;;23.70;62.70;;;;;;5013849;28;20433;-67
2022/06/03 11:39:55;;;;;;;7.80;1.43;;;23.80;64.30;;;;;;5014013;28;20392;-67
2022/06/03 11:42:33;;;;;;;1.37;1.27;;;23.90;65.60;;;;;;5013897;28;20838;-66
2022/06/03 11:45:08;;;;;;;3.27;1.33;;;23.50;66.00;;;;;;5013968;28;20420;-67
2022/06/03 11:47:39;;;;;;;1.30;1.20;;;23.50;66.60;;;;;;5014139;28;20415;-67
2022/06/03 11:50:08;;;;;;;1.90;1.70;;;23.50;66.20;;;;;;5013923;28;20397;-68
2022/06/03 11:52:34;;;;;;;1.97;1.40;;;23.40;66.90;;;;;;5013604;28;20412;-68
2022/06/03 11:55:00;;;;;;;1.47;1.37;;;23.60;66.90;;;;;;5013847;28;20458;-67
2022/06/03 11:57:28;;;;;;;1.50;1.40;;;23.60;66.30;;;;;;5013918;28;20200;-67
2022/06/03 11:59:57;;;;;;;1.40;1.20;;;23.70;64.90;;;;;;5013591;28;20404;-66
2022/06/03 12:02:32;;;;;;;1.80;1.23;;;23.90;62.20;;;;;;5013845;28;20403;-69
2022/06/03 12:05:15;;;;;;;2.07;1.83;;;23.60;62.80;;;;;;5013796;28;20519;-67
2022/06/03 12:07:58;;;;;;;2.57;1.37;;;23.70;62.40;;;;;;5012844;28;20428;-67
2022/06/03 12:10:48;;;;;;;1.70;1.60;;;23.70;61.90;;;;;;5013429;28;20390;-67
2022/06/03 12:13:20;;;;;;;1.90;1.53;;;23.40;62.30;;;;;;5013554;28;20458;-68
2022/06/03 12:15:55;;;;;;;1.40;1.30;;;23.40;63.20;;;;;;5013561;28;20891;-66
2022/06/03 12:18:37;;;;;;;1.53;1.43;;;23.40;64.10;;;;;;5013508;28;20490;-67
2022/06/03 12:21:12;;;;;;;1.30;1.20;;;23.70;64.90;;;;;;5013535;28;20401;-66
2022/06/03 12:23:38;;;;;;;1.83;1.70;;;23.90;65.30;;;;;;5013337;28;20454;-67
2022/06/03 12:26:18;;;;;;;1.70;1.33;;;23.80;62.80;;;;;;5013112;28;20424;-68
2022/06/03 12:28:49;;;;;;;1.50;1.30;;;23.50;63.90;;;;;;5013436;28;20871;-68
2022/06/03 12:31:17;;;;;;;1.60;1.50;;;23.60;61.50;;;;;;5014052;28;20385;-67
2022/06/03 12:33:57;;;;;;;1.60;1.50;;;23.70;61.80;;;;;;5012938;28;20420;-67
2022/06/03 12:36:47;;;;;;;1.23;1.13;;;23.90;62.30;;;;;;5013053;28;20524;-67
2022/06/03 12:39:31;;;;;;;1.30;1.20;;;23.80;60.80;;;;;;5013234;28;20417;-68
2022/06/03 12:42:04;;;;;;;1.20;1.10;;;24.00;61.10;;;;;;5012702;28;20388;-68
2022/06/03 12:44:43;;;;;;;1.50;1.40;;;24.10;61.80;;;;;;5012792;28;20428;-68
2022/06/03 12:47:31;;;;;;;3.17;1.47;;;24.10;60.50;;;;;;5011454;28;20940;-67
2022/06/03 12:50:28;;;;;;;1.33;1.20;;;24.00;61.20;;;;;;5009681;28;20418;-68
2022/06/03 12:53:06;;;;;;;1.10;1.10;;;24.00;61.60;;;;;;5012553;28;20412;-68
2022/06/03 12:55:36;;;;;;;1.70;1.60;;;24.00;61.10;;;;;;5012694;28;20494;-68
2022/06/03 12:58:13;;;;;;;1.30;1.17;;;24.10;62.10;;;;;;5012598;28;20447;-67
2022/06/03 13:00:59;;;;;;;1.57;1.47;;;24.10;60.80;;;;;;5012310;28;20409;-68
2022/06/03 13:03:24;;;;;;;1.57;1.20;;;24.30;59.70;;;;;;5012274;28;20411;-68
2022/06/03 13:05:52;;;;;;;1.60;1.50;;;24.40;61.00;;;;;;5012354;28;20436;-68
2022/06/03 13:08:27;;;;;;;1.10;1.10;;;24.40;61.30;;;;;;5012655;28;20176;-68
2022/06/03 13:11:08;;;;;;;2.33;1.60;;;24.30;59.50;;;;;;5012170;28;20414;-66
2022/06/03 13:13:37;;;;;;;1.60;1.23;;;24.40;59.70;;;;;;5012079;28;20932;-67
2022/06/03 13:16:27;;;;;;;1.30;1.20;;;24.40;59.60;;;;;;5011740;28;20818;-67
2022/06/03 13:18:58;;;;;;;1.50;1.40;;;24.20;59.60;;;;;;5008723;28;20483;-66
2022/06/03 13:21:48;;;;;;;1.07;1.03;;;24.10;60.60;;;;;;5012155;28;20761;-67
2022/06/03 13:24:41;;;;;;;1.60;1.50;;;24.10;60.10;;;;;;5011695;28;20520;-67
2022/06/03 13:27:12;;;;;;;1.47;1.23;;;24.20;59.50;;;;;;5011163;28;20429;-67
2022/06/03 13:29:49;;;;;;;1.67;1.30;;;24.30;59.80;;;;;;5012515;28;20483;-67
2022/06/03 13:32:17;;;;;;;1.43;1.33;;;24.30;60.20;;;;;;5012423;28;20497;-67
2022/06/03 13:34:44;;;;;;;1.50;1.40;;;24.20;58.90;;;;;;5012151;28;20452;-68
2022/06/03 13:37:30;;;;;;;1.90;1.40;;;24.20;59.90;;;;;;5012389;28;20971;-67
2022/06/03 13:39:56;;;;;;;1.43;1.27;;;24.30;59.10;;;;;;5012577;28;20428;-67
2022/06/03 13:45:19;;;;;;;3.70;1.50;;;24.20;60.30;;;;;;5011624;28;20213;-68
2022/06/03 13:47:45;;;;;;;1.60;1.40;;;24.40;60.20;;;;;;5011739;28;20400;-68
2022/06/03 13:50:13;;;;;;;1.40;1.30;;;24.80;59.00;;;;;;5011555;28;20400;-66
2022/06/03 13:52:48;;;;;;;1.30;1.20;;;24.80;57.20;;;;;;5011600;28;20174;-66
2022/06/03 13:57:43;;;;;;;1.33;1.23;;;24.70;56.80;;;;;;5061133;23;20515;-70
2022/06/03 14:00:24;;;;;;;1.47;1.37;;;25.00;56.70;;;;;;5034352;28;20417;-69
2022/06/03 14:03:02;;;;;;;1.63;1.47;;;25.10;56.20;;;;;;5034206;28;20394;-69
2022/06/03 14:05:41;;;;;;;1.53;1.43;;;24.80;56.00;;;;;;5033757;28;20397;-69
2022/06/03 14:08:14;;;;;;;1.40;1.30;;;24.80;55.80;;;;;;5033982;28;21010;-69
2022/06/03 14:10:55;;;;;;;1.40;1.30;;;24.80;54.80;;;;;;5034475;28;20408;-69
2022/06/03 14:13:43;;;;;;;1.30;1.20;;;24.80;55.40;;;;;;5034029;28;20460;-69
2022/06/03 14:16:18;;;;;;;1.80;1.70;;;24.70;55.30;;;;;;5020132;28;20442;-69
2022/06/03 14:18:48;;;;;;;1.40;1.23;;;24.70;55.40;;;;;;5035310;28;20454;-69
2022/06/03 14:21:21;;;;;;;1.57;1.47;;;24.90;55.20;;;;;;5035187;28;20405;-69
2022/06/03 14:23:50;;;;;;;1.30;1.20;;;24.70;54.90;;;;;;5034858;28;20397;-69